.
WxDataArchive / Data Records for 2008-12-02
2008-12-01 December 2008 2008-12-03

Data Records for Tuesday, 02 December 2008

Time	Temp	Chill	HIndex	Humid	Dewpt	 Wind 	HiWind	WindDir	Rain 	Barom 
-----	----	-----	------	-----	-----	------	------	-------	-----	----- 
00:00	25.6	25.6	25.6	84	21.5	3	11	225	0.00	29.879 
00:05	25.4	20.5	25.4	83	21.0	4	13	270	0.00	29.883 
00:10	25.4	25.4	25.4	83	21.0	3	6	248	0.00	29.888 
00:15	25.3	20.3	25.3	82	20.6	4	11	270	0.00	29.894 
00:20	25.3	25.3	25.3	81	20.3	3	11	248	0.00	29.897 
00:25	25.3	20.3	25.3	81	20.3	4	11	248	0.00	29.899 
00:30	25.3	25.3	25.3	81	20.3	2	6	248	0.00	29.901 
00:35	25.3	25.3	25.3	81	20.3	2	5	248	0.00	29.902 
00:40	25.3	25.3	25.3	81	20.3	3	7	270	0.00	29.904 
00:45	25.1	20.1	25.1	81	20.1	4	12	270	0.00	29.905 
00:50	25.0	20.0	25.0	80	19.7	4	8	270	0.00	29.908 
00:55	25.0	20.0	25.0	80	19.7	4	9	248	0.00	29.910 
01:00	24.8	19.8	24.8	79	19.2	4	13	270	0.00	29.910 
01:05	24.7	19.6	24.7	79	19.1	4	10	270	0.00	29.913 
01:10	24.7	24.7	24.7	79	19.1	3	8	270	0.00	29.913 
01:15	24.7	24.7	24.7	80	19.4	1	4	248	0.00	29.916 
01:20	24.5	24.5	24.5	80	19.2	2	6	248	0.00	29.917 
01:25	24.5	24.5	24.5	80	19.2	1	4	248	0.00	29.918 
01:30	24.5	24.5	24.5	79	18.9	3	6	248	0.00	29.920 
01:35	24.5	24.5	24.5	79	18.9	2	5	248	0.00	29.922 
01:40	24.4	24.4	24.4	79	18.8	3	9	270	0.00	29.925 
01:45	24.4	24.4	24.4	78	18.5	3	5	270	0.00	29.925 
01:50	24.2	24.2	24.2	79	18.6	2	5	248	0.00	29.926 
01:55	24.1	24.1	24.1	79	18.5	3	9	270	0.00	29.924 
02:00	24.1	24.1	24.1	79	18.5	2	9	248	0.00	29.927 
02:05	23.9	23.9	23.9	79	18.4	3	5	248	0.00	29.932 
02:10	23.9	23.9	23.9	79	18.4	3	7	248	0.00	29.930 
02:15	23.8	23.8	23.8	79	18.3	3	7	248	0.00	29.930 
02:20	23.6	23.6	23.6	79	18.1	3	11	248	0.00	29.932 
02:25	23.6	23.6	23.6	79	18.1	2	4	248	0.00	29.934 
02:30	23.6	23.6	23.6	79	18.1	2	5	248	0.00	29.940 
02:35	23.5	23.5	23.5	79	18.0	3	8	248	0.00	29.943 
02:40	23.5	23.5	23.5	79	18.0	3	7	248	0.00	29.948 
02:45	23.3	23.3	23.3	79	17.8	3	9	248	0.00	29.949 
02:50	23.2	17.9	23.2	78	17.4	4	9	248	0.00	29.951 
02:55	23.0	17.7	23.0	77	16.9	4	10	248	0.00	29.950 
03:00	23.0	17.7	23.0	76	16.6	4	10	270	0.00	29.951 
03:05	22.9	22.9	22.9	76	16.5	2	6	270	0.00	29.954 
03:10	22.9	22.9	22.9	76	16.5	2	6	248	0.00	29.955 
03:15	22.9	17.6	22.9	75	16.2	4	11	248	0.00	29.959 
03:20	22.7	22.7	22.7	74	15.7	3	9	270	0.00	29.961 
03:25	22.7	22.7	22.7	74	15.7	1	4	248	0.00	29.961 
03:30	22.7	22.7	22.7	75	16.0	2	5	248	0.00	29.965 
03:35	22.5	22.5	22.5	75	15.8	2	6	248	0.00	29.967 
03:40	22.5	22.5	22.5	75	15.8	2	9	248	0.00	29.968 
03:45	22.5	22.5	22.5	75	15.8	3	6	248	0.00	29.969 
03:50	22.5	22.5	22.5	75	15.8	2	6	248	0.00	29.969 
03:55	22.5	22.5	22.5	75	15.8	3	9	270	0.00	29.969 
04:00	22.5	22.5	22.5	76	16.1	3	7	270	0.00	29.974 
04:05	22.5	22.5	22.5	76	16.1	1	3	270	0.00	29.974 
04:10	22.5	22.5	22.5	77	16.4	2	4	248	0.00	29.977 
04:15	22.5	22.5	22.5	77	16.4	2	5	270	0.00	29.981 
04:20	22.5	22.5	22.5	77	16.4	2	5	248	0.00	29.978 
04:25	22.5	22.5	22.5	77	16.4	2	6	270	0.00	29.981 
04:30	22.5	22.5	22.5	76	16.1	2	7	248	0.00	29.983 
04:35	22.5	22.5	22.5	76	16.1	2	5	248	0.00	29.984 
04:40	22.5	22.5	22.5	76	16.1	2	6	248	0.00	29.986 
04:45	22.5	22.5	22.5	76	16.1	3	6	270	0.00	29.985 
04:50	22.5	22.5	22.5	76	16.1	3	6	270	0.00	29.989 
04:55	22.5	22.5	22.5	76	16.1	2	4	270	0.00	29.995 
05:00	22.5	22.5	22.5	76	16.1	2	5	248	0.00	29.998 
05:05	22.5	22.5	22.5	76	16.1	2	6	248	0.00	30.002 
05:10	22.5	17.1	22.5	75	15.8	4	11	248	0.00	30.002 
05:15	22.5	22.5	22.5	74	15.5	3	7	248	0.00	30.004 
05:20	22.5	22.5	22.5	74	15.5	3	10	248	0.00	30.006 
05:25	22.5	22.5	22.5	74	15.5	2	4	248	0.00	30.010 
05:30	22.5	22.5	22.5	74	15.5	2	7	248	0.00	30.011 
05:35	22.5	22.5	22.5	75	15.8	1	3	248	0.00	30.014 
05:40	22.4	22.4	22.4	75	15.7	2	7	270	0.00	30.015 
05:45	22.4	22.4	22.4	75	15.7	2	6	248	0.00	30.017 
05:50	22.4	22.4	22.4	75	15.7	2	4	248	0.00	30.018 
05:55	22.4	22.4	22.4	75	15.7	1	5	248	0.00	30.019 
06:00	22.4	22.4	22.4	75	15.7	2	6	248	0.00	30.021 
06:05	22.4	22.4	22.4	75	15.7	2	7	248	0.00	30.026 
06:10	22.4	22.4	22.4	75	15.7	1	3	248	0.00	30.032 
06:15	22.4	22.4	22.4	74	15.4	2	7	248	0.00	30.035 
06:20	22.5	22.5	22.5	74	15.5	2	4	248	0.00	30.035 
06:25	22.5	22.5	22.5	74	15.5	2	6	248	0.00	30.036 
06:30	22.5	22.5	22.5	74	15.5	1	4	248	0.00	30.037 
06:35	22.5	22.5	22.5	74	15.5	2	5	270	0.00	30.039 
06:40	22.5	22.5	22.5	74	15.5	2	5	248	0.00	30.042 
06:45	22.5	22.5	22.5	75	15.8	1	7	248	0.00	30.045 
06:50	22.5	22.5	22.5	74	15.5	2	5	248	0.00	30.046 
06:55	22.5	22.5	22.5	73	15.2	3	10	248	0.00	30.047 
07:00	22.4	17.0	22.4	72	14.8	4	13	270	0.00	30.051 
07:05	22.4	22.4	22.4	72	14.8	2	6	248	0.00	30.051 
07:10	22.4	22.4	22.4	72	14.8	2	5	248	0.00	30.052 
07:15	22.4	22.4	22.4	73	15.1	1	6	248	0.00	30.052 
07:20	22.4	22.4	22.4	73	15.1	2	6	248	0.00	30.053 
07:25	22.4	22.4	22.4	73	15.1	2	6	248	0.00	30.053 
07:30	22.4	22.4	22.4	73	15.1	1	4	248	0.00	30.055 
07:35	22.4	22.4	22.4	73	15.1	1	3	248	0.00	30.054 
07:40	22.4	22.4	22.4	74	15.4	0	1	248	0.00	30.055 
07:45	22.5	22.5	22.5	74	15.5	0	1	248	0.00	30.058 
07:50	22.5	22.5	22.5	74	15.5	1	4	248	0.00	30.059 
07:55	22.5	22.5	22.5	74	15.5	1	4	248	0.00	30.061 
08:00	22.5	22.5	22.5	74	15.5	1	5	225	0.00	30.060 
08:05	22.5	22.5	22.5	74	15.5	2	6	248	0.00	30.061 
08:10	22.7	22.7	22.7	74	15.7	1	5	248	0.00	30.059 
08:15	22.7	22.7	22.7	74	15.7	1	5	248	0.00	30.058 
08:20	22.7	22.7	22.7	74	15.7	1	3	248	0.00	30.057 
08:25	22.7	22.7	22.7	75	16.0	1	3	248	0.00	30.059 
08:30	22.9	22.9	22.9	75	16.2	1	3	248	0.00	30.056 
08:35	22.9	22.9	22.9	75	16.2	2	5	248	0.00	30.060 
08:40	22.9	22.9	22.9	76	16.5	2	5	248	0.00	30.061 
08:45	22.9	22.9	22.9	77	16.8	1	6	248	0.00	30.064 
08:50	23.0	23.0	23.0	77	16.9	2	7	248	0.00	30.066 
08:55	22.9	22.9	22.9	78	17.1	2	6	248	0.00	30.067 
09:00	22.9	22.9	22.9	79	17.4	1	4	248	0.00	30.067 
09:05	23.0	23.0	23.0	80	17.8	1	3	248	0.00	30.069 
09:10	23.0	23.0	23.0	80	17.8	1	4	248	0.00	30.069 
09:15	23.0	23.0	23.0	80	17.8	2	6	248	0.00	30.069 
09:20	22.9	22.9	22.9	80	17.7	3	9	248	0.00	30.071 
09:25	22.9	22.9	22.9	80	17.7	3	8	248	0.00	30.074 
09:30	23.0	23.0	23.0	81	18.1	2	6	248	0.00	30.075 
09:35	23.0	23.0	23.0	82	18.3	2	5	248	0.00	30.081 
09:40	23.2	23.2	23.2	81	18.3	2	7	248	0.00	30.083 
09:45	23.3	23.3	23.3	82	18.6	2	9	248	0.00	30.083 
09:50	23.5	23.5	23.5	80	18.3	3	14	248	0.00	30.087 
09:55	23.6	23.6	23.6	79	18.1	3	7	248	0.00	30.090 
10:00	23.5	18.3	23.5	76	17.1	4	11	270	0.00	30.089 
10:05	23.5	23.5	23.5	73	16.1	3	9	270	0.00	30.088 
10:10	23.5	23.5	23.5	72	15.8	3	8	248	0.00	30.090 
10:15	23.6	23.6	23.6	71	15.6	2	5	248	0.00	30.095 
10:20	23.8	23.8	23.8	70	15.5	3	6	248	0.00	30.094 
10:25	23.9	23.9	23.9	71	15.9	2	6	248	0.00	30.094 
10:30	24.2	24.2	24.2	70	15.9	3	9	248	0.00	30.097 
10:35	24.4	24.4	24.4	71	16.4	2	7	248	0.00	30.099 
10:40	24.4	24.4	24.4	70	16.0	2	5	248	0.00	30.098 
10:45	24.7	24.7	24.7	69	16.0	2	6	248	0.00	30.098 
10:50	25.0	25.0	25.0	70	16.6	2	5	248	0.00	30.096 
10:55	25.4	25.4	25.4	70	17.0	3	7	248	0.00	30.096 
11:00	25.4	25.4	25.4	69	16.7	2	5	248	0.00	30.095 
11:05	25.4	25.4	25.4	71	17.3	1	6	248	0.00	30.094 
11:10	25.4	25.4	25.4	71	17.3	2	8	248	0.00	30.092 
11:15	25.1	25.1	25.1	71	17.0	2	5	248	0.00	30.090 
11:20	25.4	25.4	25.4	72	17.7	1	7	248	0.00	30.085 
11:25	25.6	25.6	25.6	70	17.2	3	7	248	0.00	30.083 
11:30	25.7	25.7	25.7	70	17.3	2	6	248	0.00	30.081 
11:35	25.8	25.8	25.8	69	17.1	2	9	248	0.00	30.081 
11:40	25.8	25.8	25.8	69	17.1	2	9	248	0.00	30.079 
11:45	26.0	26.0	26.0	68	16.9	2	4	248	0.00	30.080 
11:50	25.8	25.8	25.8	69	17.1	2	7	248	0.00	30.080 
11:55	26.0	26.0	26.0	70	17.6	2	4	248	0.00	30.080 
12:00	26.1	26.1	26.1	70	17.7	2	6	248	0.00	30.078 
12:05	26.1	26.1	26.1	70	17.7	3	6	248	0.00	30.080 
12:10	26.1	26.1	26.1	69	17.3	3	7	248	0.00	30.078 
12:15	26.0	21.1	26.0	68	16.9	4	10	248	0.00	30.077 
12:20	26.1	26.1	26.1	69	17.3	3	7	248	0.00	30.080 
12:25	26.1	26.1	26.1	69	17.3	3	6	248	0.00	30.077 
12:30	26.3	26.3	26.3	69	17.5	3	7	248	0.00	30.073 
12:35	26.3	21.5	26.3	69	17.5	4	10	248	0.00	30.072 
12:40	26.4	26.4	26.4	69	17.6	3	9	248	0.00	30.071 
12:45	26.4	26.4	26.4	69	17.6	3	7	270	0.00	30.072 
12:50	26.4	21.6	26.4	70	18.0	4	12	248	0.00	30.074 
12:55	26.4	26.4	26.4	70	18.0	3	6	248	0.00	30.074 
13:00	26.4	21.6	26.4	71	18.3	4	12	248	0.00	30.072 
13:05	26.3	26.3	26.3	72	18.5	3	10	248	0.00	30.071 
13:10	26.3	26.3	26.3	73	18.8	2	7	248	0.00	30.067 
13:15	26.4	26.4	26.4	74	19.3	2	5	248	0.00	30.064 
13:20	26.4	26.4	26.4	73	18.9	3	10	248	0.00	30.059 
13:25	26.4	26.4	26.4	74	19.3	2	6	248	0.00	30.059 
13:30	26.6	26.6	26.6	74	19.5	3	6	248	0.00	30.058 
13:35	26.7	26.7	26.7	73	19.2	2	6	270	0.00	30.058 
13:40	26.7	26.7	26.7	71	18.6	3	7	248	0.00	30.062 
13:45	26.7	26.7	26.7	71	18.6	2	7	248	0.00	30.064 
13:50	26.9	26.9	26.9	71	18.8	3	7	248	0.00	30.067 
13:55	26.9	26.9	26.9	71	18.8	2	6	248	0.00	30.068 
14:00	26.9	26.9	26.9	71	18.8	2	7	248	0.00	30.069 
14:05	27.0	27.0	27.0	71	18.9	1	4	248	0.00	30.068 
14:10	27.0	27.0	27.0	71	18.9	2	6	248	0.00	30.069 
14:15	27.0	27.0	27.0	70	18.5	3	9	248	0.00	30.069 
14:20	27.0	27.0	27.0	70	18.5	2	6	248	0.00	30.068 
14:25	27.2	27.2	27.2	71	19.1	3	12	248	0.00	30.071 
14:30	27.2	27.2	27.2	70	18.7	2	7	248	0.00	30.074 
14:35	27.2	27.2	27.2	71	19.1	3	6	248	0.00	30.071 
14:40	27.3	27.3	27.3	71	19.2	2	6	248	0.00	30.069 
14:45	27.3	22.6	27.3	69	18.5	4	8	270	0.00	30.069 
14:50	27.3	22.6	27.3	68	18.2	4	11	248	0.00	30.069 
14:55	27.5	27.5	27.5	69	18.7	2	7	248	0.00	30.070 
15:00	27.6	27.6	27.6	68	18.4	2	9	248	0.00	30.071 
15:05	27.6	27.6	27.6	68	18.4	2	11	248	0.00	30.069 
15:10	27.6	27.6	27.6	68	18.4	3	9	248	0.00	30.068 
15:15	27.6	27.6	27.6	68	18.4	3	7	248	0.00	30.066 
15:20	27.6	27.6	27.6	69	18.8	2	7	248	0.00	30.062 
15:25	27.6	27.6	27.6	70	19.1	2	4	248	0.00	30.062 
15:30	27.6	27.6	27.6	71	19.4	1	9	270	0.00	30.067 
15:35	27.5	27.5	27.5	70	19.0	2	6	248	0.00	30.068 
15:40	27.5	27.5	27.5	70	19.0	2	6	270	0.00	30.071 
15:45	27.5	27.5	27.5	68	18.3	2	6	248	0.00	30.071 
15:50	27.6	27.6	27.6	66	17.8	3	8	248	0.00	30.068 
15:55	27.8	27.8	27.8	66	17.9	2	6	248	0.00	30.070 
16:00	27.8	27.8	27.8	66	17.9	1	4	248	0.00	30.073 
16:05	27.9	27.9	27.9	66	18.0	2	5	248	0.00	30.074 
16:10	27.9	27.9	27.9	65	17.7	3	6	248	0.00	30.071 
16:15	27.8	27.8	27.8	66	17.9	2	6	248	0.00	30.068 
16:20	27.8	27.8	27.8	67	18.3	1	4	248	0.00	30.069 
16:25	27.8	27.8	27.8	68	18.6	2	6	270	0.00	30.069 
16:30	27.8	27.8	27.8	68	18.6	1	4	248	0.00	30.068 
16:35	27.8	27.8	27.8	68	18.6	2	5	225	0.00	30.069 
16:40	27.8	27.8	27.8	67	18.3	2	5	248	0.00	30.069 
16:45	27.6	27.6	27.6	66	17.8	2	5	270	0.00	30.069 
16:50	27.5	27.5	27.5	66	17.7	3	7	248	0.00	30.068 
16:55	27.5	27.5	27.5	66	17.7	2	11	248	0.00	30.068 
17:00	27.3	27.3	27.3	66	17.5	2	6	248	0.00	30.065 
17:05	27.2	27.2	27.2	66	17.4	2	7	270	0.00	30.069 
17:10	27.0	27.0	27.0	67	17.5	2	7	248	0.00	30.067 
17:15	27.0	27.0	27.0	68	17.9	1	5	248	0.00	30.068 
17:20	26.9	26.9	26.9	68	17.8	0	3	292	0.00	30.067 
17:25	26.7	26.7	26.7	69	17.9	1	3	225	0.00	30.061 
17:30	26.6	26.6	26.6	69	17.8	1	5	270	0.00	30.062 
17:35	26.4	26.4	26.4	70	18.0	1	4	270	0.00	30.064 
17:40	26.3	26.3	26.3	70	17.9	0	2	270	0.00	30.067 
17:45	26.1	26.1	26.1	70	17.7	1	3	270	0.00	30.065 
17:50	26.1	26.1	26.1	71	18.0	1	4	248	0.00	30.064 
17:55	26.0	26.0	26.0	71	17.9	0	2	112	0.00	30.061 
18:00	25.8	25.8	25.8	71	17.7	0	2	0	0.00	30.065 
18:05	25.7	25.7	25.7	72	17.9	0	1	0	0.00	30.066 
18:10	25.6	25.6	25.6	72	17.8	0	3	0	0.00	30.062 
18:15	25.6	25.6	25.6	72	17.8	1	3	112	0.00	30.060 
18:20	25.7	25.7	25.7	72	17.9	1	3	292	0.00	30.058 
18:25	25.7	25.7	25.7	72	17.9	0	2	45	0.00	30.057 
18:30	25.7	25.7	25.7	72	17.9	0	3	90	0.00	30.058 
18:35	25.7	25.7	25.7	72	17.9	1	4	112	0.00	30.057 
18:40	25.7	25.7	25.7	72	17.9	0	2	112	0.00	30.058 
18:45	25.7	25.7	25.7	72	17.9	0	1	112	0.00	30.056 
18:50	25.7	25.7	25.7	73	18.3	0	1	292	0.00	30.056 
18:55	25.7	25.7	25.7	73	18.3	1	4	112	0.00	30.054 
19:00	25.8	25.8	25.8	73	18.4	0	2	68	0.00	30.054 
19:05	25.8	25.8	25.8	73	18.4	1	4	68	0.00	30.056 
19:10	26.0	26.0	26.0	73	18.6	1	6	112	0.00	30.055 
19:15	26.0	26.0	26.0	73	18.6	1	3	112	0.00	30.059 
19:20	26.1	26.1	26.1	73	18.7	1	3	90	0.00	30.064 
19:25	26.1	26.1	26.1	73	18.7	0	1	225	0.00	30.067 
19:30	26.1	26.1	26.1	73	18.7	0	2	112	0.00	30.068 
19:35	26.0	26.0	26.0	73	18.6	1	4	112	0.00	30.066 
19:40	26.0	26.0	26.0	73	18.6	1	5	68	0.00	30.064 
19:45	26.1	26.1	26.1	73	18.7	1	4	90	0.00	30.066 
19:50	26.1	26.1	26.1	74	19.0	1	4	90	0.00	30.061 
19:55	26.1	26.1	26.1	74	19.0	1	4	90	0.00	30.057 
20:00	26.3	26.3	26.3	74	19.2	2	5	90	0.00	30.055 
20:05	26.3	26.3	26.3	74	19.2	1	3	68	0.00	30.056 
20:10	26.3	26.3	26.3	74	19.2	1	3	112	0.00	30.055 
20:15	26.3	26.3	26.3	74	19.2	1	5	112	0.00	30.054 
20:20	26.4	26.4	26.4	74	19.3	2	6	90	0.00	30.050 
20:25	26.4	26.4	26.4	74	19.3	1	6	90	0.00	30.044 
20:30	26.4	26.4	26.4	74	19.3	1	5	90	0.00	30.045 
20:35	26.4	26.4	26.4	74	19.3	1	4	68	0.00	30.044 
20:40	26.4	26.4	26.4	74	19.3	1	5	68	0.00	30.043 
20:45	26.4	26.4	26.4	74	19.3	1	6	90	0.00	30.039 
20:50	26.4	26.4	26.4	75	19.6	1	6	90	0.00	30.037 
20:55	26.4	26.4	26.4	75	19.6	2	6	90	0.00	30.039 
21:00	26.4	26.4	26.4	75	19.6	1	4	90	0.00	30.039 
21:05	26.3	26.3	26.3	75	19.5	1	4	112	0.00	30.037 
21:10	26.3	26.3	26.3	76	19.8	1	3	112	0.00	30.036 
21:15	26.1	26.1	26.1	76	19.6	1	4	112	0.00	30.035 
21:20	26.1	26.1	26.1	76	19.6	1	4	270	0.00	30.035 
21:25	26.3	26.3	26.3	77	20.1	1	3	338	0.00	30.033 
21:30	26.3	26.3	26.3	77	20.1	1	5	270	0.00	30.033 
21:35	26.4	26.4	26.4	77	20.2	1	6	68	0.00	30.034 
21:40	26.4	26.4	26.4	77	20.2	1	4	248	0.00	30.036 
21:45	26.4	26.4	26.4	77	20.2	0	2	248	0.00	30.036 
21:50	26.4	26.4	26.4	77	20.2	1	5	338	0.00	30.037 
21:55	26.4	26.4	26.4	77	20.2	1	5	270	0.00	30.036 
22:00	26.4	26.4	26.4	77	20.2	1	4	338	0.00	30.034 
22:05	26.4	26.4	26.4	77	20.2	1	3	90	0.00	30.030 
22:10	26.6	26.6	26.6	77	20.4	1	3	90	0.00	30.030 
22:15	26.6	26.6	26.6	77	20.4	1	3	90	0.00	30.028 
22:20	26.6	26.6	26.6	77	20.4	1	4	68	0.00	30.021 
22:25	26.7	26.7	26.7	77	20.5	1	6	292	0.00	30.028 
22:30	26.7	26.7	26.7	77	20.5	1	4	248	0.00	30.032 
22:35	26.7	26.7	26.7	77	20.5	1	5	68	0.00	30.026 
22:40	26.7	26.7	26.7	77	20.5	1	5	158	0.00	30.037 
22:45	26.9	26.9	26.9	77	20.7	1	4	112	0.00	30.032 
22:50	26.9	26.9	26.9	77	20.7	0	2	315	0.00	30.033 
22:55	27.0	27.0	27.0	78	21.1	1	3	112	0.00	30.033 
23:00	27.0	27.0	27.0	77	20.8	1	4	90	0.00	30.024 
23:05	27.2	27.2	27.2	77	21.0	2	4	90	0.00	30.030 
23:10	27.2	27.2	27.2	77	21.0	1	4	90	0.00	30.018 
23:15	27.2	27.2	27.2	77	21.0	1	4	90	0.00	30.019 
23:20	27.2	27.2	27.2	77	21.0	1	6	112	0.00	30.017 
23:25	27.2	27.2	27.2	77	21.0	1	5	90	0.00	30.017 
23:30	27.2	27.2	27.2	77	21.0	1	4	90	0.00	30.018 
23:35	27.2	27.2	27.2	77	21.0	1	7	112	0.00	30.019 
23:40	27.0	27.0	27.0	77	20.8	0	3	112	0.00	30.018 
23:45	27.0	27.0	27.0	78	21.1	0	2	112	0.00	30.015 
23:50	27.0	27.0	27.0	78	21.1	1	4	90	0.00	30.015 
23:55	27.0	27.0	27.0	78	21.1	1	3	90	0.00	30.009 

CoCoRaHS
IN-AL-39
A2 Web Hosting
Creative Commons License
GoDaddy
search engine by freefind advanced

loaded 2018-11-16 00:49:20 • last modified 2010-11-18 10:43:29
Privacy PolicyDisclaimer
• wx.awcolley.com is powered by PmWiki v.2002016 •
• all content (unless otherwise noted) © 2018 A W Colley